TAF and METAR

METAR for Keetmanshoop Airport

FYKT 270300Z 04005KT CAVOK 19/18 Q1017
Report created 27. feb 04:00
wind 5 knots from NE (040°) Clear sky Temperature 19° with dewpoint at 18° (Humidity 93.94%) Pressure 1017 hPa

TAF for Keetmanshoop Airport

TAF FYKT 262200Z 2700/2800 11003KT CAVOK BECMG 2702/2704 20006KT
Report created 26. feb 23:00

between 27. feb 01:00 - 28. feb 01:00

wind 3 knots from ESE (110°) Clear sky

becoming between 27. feb 03:00 - 27. feb 05:00

wind 6 knots from SSW (200°)
Keetmanshoop Airport in Namibia at 1061m

Latest 5 airports